createdAt,value
2022-12-03T00:02:20.028Z,39.30
2022-12-03T00:04:46.663Z,36.13
2022-12-03T00:07:13.246Z,35.30
2022-12-03T00:09:39.799Z,39.92
2022-12-03T00:12:06.505Z,38.47
2022-12-03T00:14:33.106Z,37.88
2022-12-03T00:16:59.706Z,38.58
2022-12-03T00:19:26.256Z,38.80
2022-12-03T00:21:53.754Z,37.58
2022-12-03T00:24:20.324Z,37.60
2022-12-03T00:26:46.901Z,35.30
2022-12-03T00:29:13.673Z,36.90
2022-12-03T00:31:40.332Z,35.10
2022-12-03T00:34:06.945Z,35.53
2022-12-03T00:36:33.507Z,35.80
2022-12-03T00:39:00.104Z,36.42
2022-12-03T00:41:26.652Z,35.55
2022-12-03T00:43:57.452Z,34.42
2022-12-03T00:46:25.206Z,36.20
2022-12-03T00:48:52.216Z,36.83
2022-12-03T00:51:19.058Z,39.30
2022-12-03T00:53:45.822Z,34.97
2022-12-03T00:56:12.427Z,30.55
2022-12-03T00:58:38.988Z,36.70
2022-12-03T01:01:05.824Z,33.58
2022-12-03T01:03:32.466Z,35.92
2022-12-03T01:05:59.056Z,38.22
2022-12-03T01:08:25.663Z,35.88
2022-12-03T01:10:52.227Z,31.92
2022-12-03T01:13:18.823Z,34.03
2022-12-03T01:15:45.501Z,38.72
2022-12-03T01:18:12.137Z,35.05
2022-12-03T01:20:38.842Z,34.25
2022-12-03T01:23:05.758Z,35.80
2022-12-03T01:25:32.381Z,38.40
2022-12-03T01:27:59.041Z,33.33
2022-12-03T01:30:25.655Z,34.83
2022-12-03T01:32:52.253Z,31.65
2022-12-03T01:35:18.874Z,31.15
2022-12-03T01:37:45.438Z,32.55
2022-12-03T01:40:16.058Z,33.33
2022-12-03T01:42:42.774Z,33.30
2022-12-03T01:45:22.474Z,28.65
2022-12-03T01:47:49.215Z,28.13
2022-12-03T01:50:23.061Z,25.30
2022-12-03T01:52:49.897Z,29.92
2022-12-03T01:55:19.386Z,23.85
2022-12-03T01:57:51.145Z,24.25
2022-12-03T02:00:21.915Z,27.25
2022-12-03T02:02:51.860Z,31.02
2022-12-03T02:05:21.440Z,33.22
2022-12-03T02:07:48.416Z,25.75
2022-12-03T02:10:17.303Z,29.88
2022-12-03T02:12:48.839Z,31.25
2022-12-03T02:15:15.711Z,38.42
2022-12-03T02:17:43.119Z,29.42
2022-12-03T02:20:11.629Z,36.22
2022-12-03T02:22:59.598Z,38.30
2022-12-03T02:25:28.407Z,32.97
2022-12-03T02:27:55.825Z,31.90
2022-12-03T02:30:25.915Z,36.58
2022-12-03T02:32:54.223Z,30.17
2022-12-03T02:35:23.366Z,38.92
2022-12-03T02:37:53.011Z,41.13
2022-12-03T02:40:24.681Z,35.95
2022-12-03T02:42:56.285Z,36.40
2022-12-03T02:45:39.759Z,35.60
2022-12-03T02:48:11.685Z,35.03
2022-12-03T02:50:42.425Z,40.20
2022-12-03T02:53:18.164Z,41.58
2022-12-03T02:55:45.386Z,38.25
2022-12-03T02:58:12.476Z,36.40
2022-12-03T03:00:39.779Z,34.35
2022-12-03T03:03:08.471Z,36.60
2022-12-03T03:05:38.636Z,44.72
2022-12-03T03:08:07.670Z,41.97
2022-12-03T03:10:35.908Z,42.70
2022-12-03T03:13:06.966Z,43.65
2022-12-03T03:15:36.216Z,38.70
2022-12-03T03:18:03.201Z,34.65
2022-12-03T03:20:29.866Z,43.35
2022-12-03T03:23:10.734Z,43.08
2022-12-03T03:25:38.653Z,36.70
2022-12-03T03:28:06.008Z,39.47
2022-12-03T03:30:33.716Z,44.55
2022-12-03T03:33:00.359Z,44.65
2022-12-03T03:35:27.708Z,47.40
2022-12-03T03:37:56.952Z,41.65
2022-12-03T03:40:23.543Z,45.35
2022-12-03T03:42:50.446Z,52.70
2022-12-03T03:45:17.953Z,43.25
2022-12-03T03:47:45.386Z,46.83
2022-12-03T03:50:14.037Z,49.22
2022-12-03T03:52:41.507Z,51.05
2022-12-03T03:55:10.345Z,39.72
2022-12-03T03:57:37.889Z,44.45
2022-12-03T04:00:08.165Z,39.90
2022-12-03T04:02:34.865Z,36.03
2022-12-03T04:05:01.540Z,37.28
2022-12-03T04:07:28.789Z,43.40
2022-12-03T04:09:55.426Z,39.25
2022-12-03T04:12:40.605Z,42.92
2022-12-03T04:15:08.097Z,43.05
2022-12-03T04:17:34.682Z,43.92
2022-12-03T04:20:01.261Z,41.22
2022-12-03T04:22:42.732Z,39.65
2022-12-03T04:25:28.808Z,38.22
2022-12-03T04:28:14.014Z,37.70
2022-12-03T04:30:40.747Z,38.63
2022-12-03T04:33:25.778Z,40.40
2022-12-03T04:35:52.809Z,35.63
2022-12-03T04:38:19.514Z,37.08
2022-12-03T04:41:01.426Z,39.33
2022-12-03T04:43:28.729Z,41.40
2022-12-03T04:45:55.406Z,35.45
2022-12-03T04:48:22.049Z,33.60
2022-12-03T04:50:48.677Z,38.42
2022-12-03T04:53:15.257Z,32.47
2022-12-03T04:55:41.876Z,34.58
2022-12-03T04:58:08.437Z,31.95
2022-12-03T05:00:35.017Z,30.75
2022-12-03T05:03:01.883Z,32.00
2022-12-03T05:05:28.506Z,34.75
2022-12-03T05:07:55.161Z,31.25
2022-12-03T05:10:21.733Z,28.70
2022-12-03T05:12:48.337Z,29.08
2022-12-03T05:15:14.973Z,30.42
2022-12-03T05:17:41.538Z,27.63
2022-12-03T05:20:28.359Z,25.17
2022-12-03T05:22:54.985Z,28.63
2022-12-03T05:25:21.558Z,26.48
2022-12-03T05:27:48.117Z,27.60
2022-12-03T05:30:15.006Z,24.52
2022-12-03T05:32:41.593Z,28.45
2022-12-03T05:35:09.536Z,28.45
2022-12-03T05:37:36.102Z,28.75
2022-12-03T05:40:03.071Z,32.63
2022-12-03T05:42:47.753Z,27.90
2022-12-03T05:45:14.422Z,29.92
2022-12-03T05:47:40.983Z,31.77
2022-12-03T05:50:08.225Z,27.30
2022-12-03T05:52:34.834Z,32.83
2022-12-03T05:55:01.553Z,31.65
2022-12-03T05:57:28.134Z,28.95
2022-12-03T05:59:54.748Z,28.75
2022-12-03T06:02:21.446Z,27.10
2022-12-03T06:04:48.234Z,28.92
2022-12-03T06:07:14.912Z,26.25
2022-12-03T06:09:56.601Z,29.17
2022-12-03T06:12:23.219Z,32.83
2022-12-03T06:14:49.803Z,26.10
2022-12-03T06:17:16.429Z,30.08
2022-12-03T06:19:42.990Z,30.15
2022-12-03T06:22:09.578Z,31.42
2022-12-03T06:24:36.184Z,30.25
2022-12-03T06:27:02.813Z,32.42
2022-12-03T06:29:29.420Z,29.25
2022-12-03T06:31:56.089Z,33.75
2022-12-03T06:34:22.738Z,30.20
2022-12-03T06:36:50.278Z,30.77
2022-12-03T06:39:17.743Z,28.23
2022-12-03T06:41:44.425Z,32.15
2022-12-03T06:44:11.045Z,28.98
2022-12-03T06:46:37.742Z,34.13
2022-12-03T06:49:04.513Z,29.17
2022-12-03T06:51:31.448Z,27.70
2022-12-03T06:53:58.039Z,32.50
2022-12-03T06:56:25.762Z,33.03
2022-12-03T06:58:54.186Z,32.90
2022-12-03T07:01:20.867Z,33.63
2022-12-03T07:03:47.806Z,31.63
2022-12-03T07:06:14.471Z,29.02
2022-12-03T07:08:41.065Z,33.10
2022-12-03T07:11:30.613Z,32.13
2022-12-03T07:14:04.683Z,31.25
2022-12-03T07:16:32.972Z,28.05
2022-12-03T07:18:59.636Z,32.83
2022-12-03T07:21:26.232Z,28.70
2022-12-03T07:23:52.809Z,29.15
2022-12-03T07:26:19.384Z,30.30
2022-12-03T07:28:48.244Z,31.77
2022-12-03T07:31:15.403Z,27.15
2022-12-03T07:33:42.292Z,28.40
2022-12-03T07:36:09.785Z,32.85
2022-12-03T07:38:36.470Z,31.02
2022-12-03T07:41:03.354Z,29.63
2022-12-03T07:43:29.977Z,28.52
2022-12-03T07:45:56.545Z,29.92
2022-12-03T07:48:23.185Z,30.05
2022-12-03T07:50:49.865Z,29.38
2022-12-03T07:53:16.562Z,25.33
2022-12-03T07:55:43.156Z,26.05
2022-12-03T07:58:09.717Z,30.35
2022-12-03T08:00:36.393Z,29.10
2022-12-03T08:03:03.354Z,30.73
2022-12-03T08:05:30.319Z,30.40
2022-12-03T08:07:57.096Z,32.25
2022-12-03T08:10:25.748Z,29.55
2022-12-03T08:12:53.727Z,28.10
2022-12-03T08:15:25.886Z,30.30
2022-12-03T08:17:58.812Z,30.00
2022-12-03T08:20:33.389Z,24.77
2022-12-03T08:23:06.669Z,28.42
2022-12-03T08:25:34.197Z,28.65
2022-12-03T08:28:10.976Z,36.08
2022-12-03T08:30:37.861Z,28.27
2022-12-03T08:33:29.949Z,25.55
2022-12-03T08:35:56.609Z,30.52
2022-12-03T08:38:24.982Z,27.77
2022-12-03T08:40:55.307Z,27.95
2022-12-03T08:43:24.582Z,28.70
2022-12-03T08:45:53.521Z,32.50
2022-12-03T08:48:36.899Z,27.42
2022-12-03T08:53:46.499Z,31.80
2022-12-03T08:56:23.880Z,26.40
2022-12-03T08:59:00.358Z,28.00
2022-12-03T09:01:43.929Z,28.85
2022-12-03T09:04:21.644Z,30.67
2022-12-03T09:06:48.376Z,26.92
2022-12-03T09:09:15.395Z,23.58
2022-12-03T09:11:43.343Z,25.48
2022-12-03T09:14:15.116Z,24.20
2022-12-03T09:16:45.033Z,27.00
2022-12-03T09:19:11.752Z,25.15
2022-12-03T09:21:38.333Z,26.73
2022-12-03T09:24:05.219Z,22.95
2022-12-03T09:26:31.810Z,28.25
2022-12-03T09:28:58.372Z,27.70
2022-12-03T09:31:25.010Z,29.58
2022-12-03T09:33:51.665Z,30.67
2022-12-03T09:36:18.290Z,32.30
2022-12-03T09:38:47.815Z,24.90
2022-12-03T09:41:14.968Z,27.58
2022-12-03T09:46:30.228Z,24.77
2022-12-03T09:48:57.522Z,30.48
2022-12-03T09:51:32.017Z,28.52
2022-12-03T09:54:00.040Z,27.92
2022-12-03T09:56:26.751Z,28.65
2022-12-03T09:58:53.459Z,25.60
2022-12-03T10:01:20.146Z,31.27
2022-12-03T10:03:50.529Z,24.77
2022-12-03T10:06:22.522Z,31.17
2022-12-03T10:08:52.127Z,28.63
2022-12-03T10:11:21.741Z,26.83
2022-12-03T10:13:48.680Z,28.23
2022-12-03T10:16:18.264Z,27.23
2022-12-03T10:18:48.715Z,25.90
2022-12-03T10:21:20.395Z,24.90
2022-12-03T10:23:50.778Z,27.23
2022-12-03T10:26:35.882Z,29.13
2022-12-03T10:29:02.448Z,31.67
2022-12-03T10:31:36.829Z,27.30
2022-12-03T10:34:03.446Z,26.08
2022-12-03T10:36:30.025Z,26.05
2022-12-03T10:39:22.715Z,26.98
2022-12-03T10:41:49.380Z,21.77
2022-12-03T10:44:22.170Z,24.10
2022-12-03T10:47:06.672Z,26.40
2022-12-03T10:49:33.401Z,25.13
2022-12-03T10:51:59.996Z,25.20
2022-12-03T10:54:29.722Z,30.02
2022-12-03T10:56:56.977Z,27.50
2022-12-03T10:59:27.293Z,27.45
2022-12-03T11:01:54.177Z,29.90
2022-12-03T11:04:20.954Z,28.05
2022-12-03T11:06:48.219Z,26.23
2022-12-03T11:09:27.983Z,30.58
2022-12-03T11:11:54.918Z,22.65
2022-12-03T11:15:06.269Z,30.15
2022-12-03T11:17:50.266Z,31.00
2022-12-03T11:20:25.881Z,25.67
2022-12-03T11:22:54.942Z,24.15
2022-12-03T11:25:24.499Z,27.77
2022-12-03T11:28:12.422Z,24.92
2022-12-03T11:30:51.631Z,25.23
2022-12-03T11:33:23.850Z,22.60
2022-12-03T11:36:05.577Z,29.13
2022-12-03T11:38:38.041Z,25.80
2022-12-03T11:41:19.487Z,21.65
2022-12-03T11:43:52.135Z,22.15
2022-12-03T11:46:29.251Z,23.88
2022-12-03T11:48:59.133Z,24.80
2022-12-03T11:51:28.679Z,26.63
2022-12-03T11:53:58.606Z,24.17
2022-12-03T11:56:27.704Z,28.30
2022-12-03T11:58:59.939Z,27.42
2022-12-03T12:01:38.554Z,25.87
2022-12-03T12:04:07.730Z,21.70
2022-12-03T12:06:42.748Z,23.20
2022-12-03T12:09:09.732Z,23.45
2022-12-03T12:11:41.366Z,27.17
2022-12-03T12:14:09.766Z,23.70
2022-12-03T12:16:52.724Z,26.77
2022-12-03T12:19:43.849Z,25.65
2022-12-03T12:22:16.432Z,25.05
2022-12-03T12:24:47.080Z,26.65
2022-12-03T12:27:16.427Z,26.83
2022-12-03T12:29:46.404Z,23.45
2022-12-03T12:32:16.702Z,25.52
2022-12-03T12:34:46.367Z,24.92
2022-12-03T12:37:19.804Z,22.33
2022-12-03T12:39:46.774Z,29.42
2022-12-03T12:42:29.145Z,27.08
2022-12-03T12:45:19.121Z,21.42
2022-12-03T12:48:08.353Z,22.23
2022-12-03T12:50:36.421Z,22.63
2022-12-03T12:53:12.211Z,25.13
2022-12-03T12:55:40.113Z,25.10
2022-12-03T12:58:19.196Z,23.92
2022-12-03T13:00:56.251Z,23.25
2022-12-03T13:03:26.914Z,21.98
2022-12-03T13:05:56.221Z,24.08
2022-12-03T13:08:48.780Z,30.05
2022-12-03T13:11:41.369Z,25.50
2022-12-03T13:14:16.591Z,22.88
2022-12-03T13:16:43.593Z,27.30
2022-12-03T13:19:46.281Z,26.40
2022-12-03T13:24:50.925Z,22.45
2022-12-03T13:27:17.457Z,26.23
2022-12-03T13:29:56.380Z,29.02
2022-12-03T13:32:31.796Z,23.08
2022-12-03T13:35:18.644Z,25.55
2022-12-03T13:37:45.235Z,26.92
2022-12-03T13:40:28.813Z,24.15
2022-12-03T13:42:55.429Z,26.45
2022-12-03T13:45:29.741Z,25.10
2022-12-03T13:48:00.049Z,27.50
2022-12-03T13:50:38.990Z,25.30
2022-12-03T13:53:11.342Z,27.05
2022-12-03T13:55:45.291Z,24.17
2022-12-03T13:58:11.954Z,25.35
2022-12-03T14:00:38.703Z,26.52
2022-12-03T14:03:08.735Z,20.02
2022-12-03T14:05:35.312Z,24.17
2022-12-03T14:08:02.272Z,20.67
2022-12-03T14:10:29.825Z,26.90
2022-12-03T14:12:56.877Z,23.45
2022-12-03T14:15:24.914Z,23.25
2022-12-03T14:17:51.582Z,25.02
2022-12-03T14:20:18.961Z,23.77
2022-12-03T14:22:45.857Z,27.13
2022-12-03T14:25:12.444Z,23.60
2022-12-03T14:27:39.022Z,24.15
2022-12-03T14:30:06.417Z,29.73
2022-12-03T14:32:32.993Z,22.77
2022-12-03T14:35:00.458Z,25.58
2022-12-03T14:37:28.533Z,27.35
2022-12-03T14:39:55.205Z,23.52
2022-12-03T14:42:21.868Z,24.48
2022-12-03T14:44:50.418Z,20.70
2022-12-03T14:47:20.086Z,20.08
2022-12-03T14:49:46.994Z,26.75
2022-12-03T14:52:13.735Z,20.33
2022-12-03T14:54:42.654Z,24.63
2022-12-03T14:57:12.078Z,22.73
2022-12-03T14:59:42.776Z,24.42
2022-12-03T15:02:10.746Z,24.50
2022-12-03T15:04:38.500Z,21.17
2022-12-03T15:07:05.361Z,27.92
2022-12-03T15:09:32.002Z,24.45
2022-12-03T15:12:00.019Z,28.33
2022-12-03T15:14:27.070Z,27.80
2022-12-03T15:16:53.730Z,22.67
2022-12-03T15:19:20.428Z,21.65
2022-12-03T15:21:47.001Z,19.23
2022-12-03T15:24:13.615Z,26.00
2022-12-03T15:26:40.173Z,28.23
2022-12-03T15:29:06.825Z,26.95
2022-12-03T15:31:33.533Z,24.52
2022-12-03T15:34:00.196Z,26.05
2022-12-03T15:36:26.815Z,25.75
2022-12-03T15:38:53.450Z,24.58
2022-12-03T15:41:29.460Z,26.58
2022-12-03T15:43:58.677Z,21.65
2022-12-03T15:46:27.659Z,25.52
2022-12-03T15:48:55.036Z,22.42
2022-12-03T15:51:21.686Z,22.17
2022-12-03T15:53:48.363Z,31.27
2022-12-03T15:56:15.344Z,24.27
2022-12-03T15:58:42.299Z,25.20
2022-12-03T16:01:09.641Z,24.20
2022-12-03T16:03:36.560Z,26.48
2022-12-03T16:06:03.299Z,26.95
2022-12-03T16:08:29.873Z,26.67
2022-12-03T16:10:56.553Z,26.67
2022-12-03T16:13:23.136Z,28.30
2022-12-03T16:15:49.822Z,28.77
2022-12-03T16:18:16.550Z,30.17
2022-12-03T16:20:43.150Z,27.80
2022-12-03T16:23:09.808Z,29.70
2022-12-03T16:25:36.405Z,32.47
2022-12-03T16:28:03.192Z,26.05
2022-12-03T16:30:29.816Z,25.23
2022-12-03T16:32:56.398Z,29.20
2022-12-03T16:35:23.014Z,23.73
2022-12-03T16:37:49.597Z,23.98
2022-12-03T16:40:16.230Z,21.88
2022-12-03T16:42:42.817Z,20.75
2022-12-03T16:45:09.782Z,17.35
2022-12-03T16:47:36.826Z,20.67
2022-12-03T16:50:09.847Z,22.27
2022-12-03T16:52:39.398Z,25.60
2022-12-03T16:55:06.572Z,20.70
2022-12-03T16:57:33.983Z,24.75
2022-12-03T17:00:01.085Z,23.95
2022-12-03T17:02:27.959Z,20.88
2022-12-03T17:04:54.643Z,32.50
2022-12-03T17:07:21.374Z,22.67
2022-12-03T17:09:47.941Z,28.25
2022-12-03T17:12:14.540Z,28.73
2022-12-03T17:14:41.094Z,24.42
2022-12-03T17:17:07.673Z,25.17
2022-12-03T17:19:34.247Z,27.60
2022-12-03T17:22:00.931Z,25.45
2022-12-03T17:24:27.550Z,25.83
2022-12-03T17:26:54.158Z,25.75
2022-12-03T17:29:20.792Z,22.30
2022-12-03T17:31:47.481Z,22.95
2022-12-03T17:34:14.051Z,24.80
2022-12-03T17:36:40.601Z,24.25
2022-12-03T17:39:07.182Z,21.33
2022-12-03T17:41:33.759Z,25.25
2022-12-03T17:44:01.850Z,22.80
2022-12-03T17:46:30.169Z,22.10
2022-12-03T17:48:56.785Z,23.65
2022-12-03T17:51:24.562Z,18.52
2022-12-03T17:53:51.255Z,21.45
2022-12-03T17:56:17.930Z,19.02
2022-12-03T17:58:44.524Z,22.90
2022-12-03T18:01:11.578Z,23.90
2022-12-03T18:03:38.400Z,18.70
2022-12-03T18:06:05.417Z,24.90
2022-12-03T18:08:32.006Z,22.50
2022-12-03T18:10:58.581Z,20.90
2022-12-03T18:13:25.283Z,26.45
2022-12-03T18:15:51.953Z,24.90
2022-12-03T18:18:18.572Z,21.52
2022-12-03T18:20:45.184Z,25.77
2022-12-03T18:23:12.598Z,21.83
2022-12-03T18:25:39.396Z,21.75
2022-12-03T18:28:06.033Z,22.98
2022-12-03T18:30:32.634Z,22.05
2022-12-03T18:32:59.189Z,17.92
2022-12-03T18:35:25.965Z,21.60
2022-12-03T18:37:52.752Z,19.75
2022-12-03T18:40:23.014Z,25.23
2022-12-03T18:42:49.881Z,28.85
2022-12-03T18:45:16.962Z,23.08
2022-12-03T18:47:44.109Z,22.55
2022-12-03T18:50:11.768Z,21.55
2022-12-03T18:52:38.939Z,19.17
2022-12-03T18:55:06.664Z,23.27
2022-12-03T18:57:33.246Z,21.48
2022-12-03T18:59:59.937Z,23.85
2022-12-03T19:03:01.335Z,20.13
2022-12-03T19:05:13.222Z,20.90
2022-12-03T19:07:39.882Z,20.73
2022-12-03T19:10:07.565Z,21.02
2022-12-03T19:12:34.234Z,16.98
2022-12-03T19:15:01.193Z,19.60
2022-12-03T19:17:27.987Z,17.83
2022-12-03T19:19:55.453Z,29.00
2022-12-03T19:22:23.193Z,18.45
2022-12-03T19:24:50.364Z,20.70
2022-12-03T19:27:16.982Z,21.00
2022-12-03T19:29:43.625Z,25.08
2022-12-03T19:32:10.298Z,26.35
2022-12-03T19:34:36.894Z,19.25
2022-12-03T19:37:03.510Z,20.95
2022-12-03T19:39:30.077Z,21.45
2022-12-03T19:41:56.656Z,19.48
2022-12-03T19:44:23.250Z,20.90
2022-12-03T19:46:50.407Z,18.55
2022-12-03T19:49:20.830Z,21.45
2022-12-03T19:51:47.577Z,22.60
2022-12-03T19:54:15.007Z,23.58
2022-12-03T19:56:41.645Z,22.27
2022-12-03T19:59:08.642Z,19.55
2022-12-03T20:01:36.184Z,25.90
2022-12-03T20:04:04.133Z,21.33
2022-12-03T20:06:33.521Z,25.17
2022-12-03T20:09:03.666Z,25.25
2022-12-03T20:11:33.095Z,31.77
2022-12-03T20:14:02.533Z,28.02
2022-12-03T20:16:29.540Z,24.85
2022-12-03T20:18:58.650Z,23.13
2022-12-03T20:21:25.261Z,23.75
2022-12-03T20:23:51.852Z,18.02
2022-12-03T20:26:20.116Z,20.40
2022-12-03T20:28:50.268Z,24.77
2022-12-03T20:31:19.282Z,25.20
2022-12-03T20:33:49.178Z,20.55
2022-12-03T20:36:17.966Z,24.27
2022-12-03T20:38:44.669Z,18.20
2022-12-03T20:41:16.908Z,23.10
2022-12-03T20:43:43.501Z,22.97
2022-12-03T20:46:16.203Z,22.77
2022-12-03T20:48:44.120Z,27.63
2022-12-03T20:51:14.071Z,27.35
2022-12-03T20:53:41.634Z,23.13
2022-12-03T20:56:09.616Z,20.00
2022-12-03T20:58:36.819Z,26.08
2022-12-03T21:01:16.085Z,24.73
2022-12-03T21:03:43.082Z,22.45
2022-12-03T21:06:10.340Z,19.33
2022-12-03T21:08:41.394Z,21.27
2022-12-03T21:11:14.890Z,22.75
2022-12-03T21:13:43.633Z,21.58
2022-12-03T21:16:14.090Z,22.25
2022-12-03T21:18:41.406Z,26.90
2022-12-03T21:21:10.338Z,22.60
2022-12-03T21:23:37.003Z,23.33
2022-12-03T21:26:15.338Z,26.27
2022-12-03T21:28:43.633Z,22.70
2022-12-03T21:31:13.191Z,26.30
2022-12-03T21:33:40.534Z,17.05
2022-12-03T21:36:07.920Z,19.90
2022-12-03T21:38:35.562Z,25.17
2022-12-03T21:41:02.913Z,25.80
2022-12-03T21:43:30.052Z,22.48
2022-12-03T21:45:56.685Z,22.00
2022-12-03T21:48:23.305Z,23.92
2022-12-03T21:51:03.712Z,23.10
2022-12-03T21:53:32.169Z,23.40
2022-12-03T21:55:59.832Z,23.33
2022-12-03T21:58:26.429Z,20.27
2022-12-03T22:00:53.118Z,20.58
2022-12-03T22:03:19.761Z,19.67
2022-12-03T22:05:46.414Z,20.45
2022-12-03T22:08:13.890Z,23.00
2022-12-03T22:10:40.808Z,20.15
2022-12-03T22:13:07.504Z,21.05
2022-12-03T22:15:34.125Z,19.02
2022-12-03T22:18:00.848Z,17.65
2022-12-03T22:20:27.533Z,21.10
2022-12-03T22:22:54.176Z,16.25
2022-12-03T22:25:20.770Z,21.55
2022-12-03T22:27:47.342Z,21.60
2022-12-03T22:30:14.285Z,15.75
2022-12-03T22:32:40.893Z,21.38
2022-12-03T22:35:07.873Z,18.52
2022-12-03T22:37:34.496Z,21.08
2022-12-03T22:40:01.060Z,20.08
2022-12-03T22:42:27.728Z,23.15
2022-12-03T22:44:54.281Z,27.60
2022-12-03T22:47:20.871Z,20.88
2022-12-03T22:49:47.417Z,21.80
2022-12-03T22:52:14.002Z,20.98
2022-12-03T22:54:40.581Z,22.25
2022-12-03T22:57:07.158Z,24.45
2022-12-03T22:59:33.743Z,22.67
2022-12-03T23:02:00.306Z,18.95
2022-12-03T23:04:27.001Z,21.92
2022-12-03T23:06:53.574Z,20.70
2022-12-03T23:09:20.860Z,21.77
2022-12-03T23:11:47.544Z,21.33
2022-12-03T23:14:14.207Z,24.98
2022-12-03T23:16:41.216Z,22.00
2022-12-03T23:19:07.951Z,21.17
2022-12-03T23:21:35.523Z,22.15
2022-12-03T23:24:03.764Z,25.58
2022-12-03T23:26:33.155Z,29.27
2022-12-03T23:28:59.839Z,19.98
2022-12-03T23:31:29.854Z,20.33
2022-12-03T23:33:57.360Z,23.33
2022-12-03T23:36:25.607Z,20.60
2022-12-03T23:38:52.334Z,23.95
2022-12-03T23:41:21.426Z,20.40
2022-12-03T23:43:48.306Z,18.35
2022-12-03T23:46:20.645Z,26.52
2022-12-03T23:48:47.575Z,20.50
2022-12-03T23:51:16.953Z,22.60
2022-12-03T23:53:44.811Z,18.35
2022-12-03T23:56:14.686Z,19.00
2022-12-03T23:58:41.627Z,20.00
